createdAt,value
2018-12-18T00:00:12.057Z,18.50
2018-12-18T00:02:39.494Z,16.23
2018-12-18T00:05:12.792Z,18.43
2018-12-18T00:07:40.248Z,20.03
2018-12-18T00:10:07.742Z,17.77
2018-12-18T00:12:35.175Z,17.30
2018-12-18T00:15:02.655Z,18.13
2018-12-18T00:17:30.101Z,18.17
2018-12-18T00:19:57.556Z,18.00
2018-12-18T00:22:24.986Z,18.03
2018-12-18T00:24:52.451Z,17.50
2018-12-18T00:27:19.885Z,17.33
2018-12-18T00:29:47.356Z,18.97
2018-12-18T00:32:14.821Z,16.23
2018-12-18T00:34:42.289Z,18.63
2018-12-18T00:37:09.731Z,16.93
2018-12-18T00:39:37.215Z,17.50
2018-12-18T00:42:04.648Z,17.57
2018-12-18T00:44:32.088Z,17.13
2018-12-18T00:46:59.520Z,18.33
2018-12-18T00:49:26.981Z,16.20
2018-12-18T00:51:54.418Z,13.17
2018-12-18T00:54:22.101Z,16.67
2018-12-18T00:56:49.536Z,17.17
2018-12-18T00:59:16.997Z,16.53
2018-12-18T01:01:46.359Z,16.87
2018-12-18T01:04:13.815Z,16.97
2018-12-18T01:06:41.248Z,13.83
2018-12-18T01:09:08.722Z,13.00
2018-12-18T01:11:36.148Z,15.80
2018-12-18T01:14:03.593Z,15.70
2018-12-18T01:16:31.051Z,15.33
2018-12-18T01:18:58.504Z,14.10
2018-12-18T01:21:25.962Z,15.67
2018-12-18T01:23:53.409Z,14.57
2018-12-18T01:26:20.863Z,16.27
2018-12-18T01:28:48.376Z,16.73
2018-12-18T01:31:15.836Z,13.07
2018-12-18T01:33:43.271Z,14.77
2018-12-18T01:36:10.715Z,13.70
2018-12-18T01:38:38.172Z,13.43
2018-12-18T01:41:05.619Z,14.10
2018-12-18T01:43:33.061Z,14.90
2018-12-18T01:46:00.523Z,14.33
2018-12-18T01:48:27.987Z,13.60
2018-12-18T01:50:55.459Z,14.03
2018-12-18T01:53:22.921Z,15.27
2018-12-18T01:55:50.377Z,13.93
2018-12-18T01:58:17.824Z,14.30
2018-12-18T02:00:45.296Z,14.07
2018-12-18T02:03:12.820Z,11.90
2018-12-18T02:05:40.304Z,12.53
2018-12-18T02:08:07.744Z,12.33
2018-12-18T02:10:37.152Z,14.13
2018-12-18T02:13:04.579Z,11.83
2018-12-18T02:15:32.037Z,13.20
2018-12-18T02:17:59.480Z,15.70
2018-12-18T02:20:26.927Z,11.90
2018-12-18T02:22:54.464Z,13.50
2018-12-18T02:25:21.980Z,13.77
2018-12-18T02:27:49.453Z,13.03
2018-12-18T02:30:16.914Z,13.93
2018-12-18T02:32:44.365Z,12.50
2018-12-18T02:35:11.809Z,11.87
2018-12-18T02:37:39.259Z,10.07
2018-12-18T02:40:07.047Z,11.37
2018-12-18T02:42:34.512Z,11.97
2018-12-18T02:45:01.958Z,12.93
2018-12-18T02:47:29.418Z,13.37
2018-12-18T02:49:56.877Z,10.93
2018-12-18T02:52:24.384Z,11.93
2018-12-18T02:54:51.886Z,12.43
2018-12-18T02:57:19.344Z,11.77
2018-12-18T02:59:46.801Z,12.13
2018-12-18T03:02:14.246Z,10.33
2018-12-18T03:04:41.701Z,11.77
2018-12-18T03:07:09.153Z,12.17
2018-12-18T03:09:36.691Z,10.97
2018-12-18T03:12:04.206Z,10.20
2018-12-18T03:14:31.650Z,9.17
2018-12-18T03:16:59.102Z,10.67
2018-12-18T03:19:26.559Z,9.17
2018-12-18T03:21:54.012Z,10.37
2018-12-18T03:24:21.470Z,10.27
2018-12-18T03:26:48.888Z,9.93
2018-12-18T03:29:16.492Z,9.50
2018-12-18T03:31:45.988Z,9.50
2018-12-18T03:34:13.463Z,10.33
2018-12-18T03:36:40.929Z,9.83
2018-12-18T03:39:08.369Z,9.33
2018-12-18T03:41:35.812Z,9.43
2018-12-18T03:44:03.267Z,9.67
2018-12-18T03:46:30.729Z,10.03
2018-12-18T03:48:58.150Z,9.30
2018-12-18T03:51:25.621Z,9.07
2018-12-18T03:53:53.084Z,10.90
2018-12-18T03:56:20.532Z,10.63
2018-12-18T03:58:47.989Z,9.33
2018-12-18T04:01:15.450Z,9.07
2018-12-18T04:03:42.952Z,9.80
2018-12-18T04:06:10.396Z,8.93
2018-12-18T04:08:37.815Z,9.60
2018-12-18T04:11:05.277Z,10.13
2018-12-18T04:13:32.720Z,8.80
2018-12-18T04:16:00.170Z,10.10
2018-12-18T04:18:27.625Z,9.37
2018-12-18T04:20:55.058Z,10.23
2018-12-18T04:23:22.501Z,9.57
2018-12-18T04:25:51.903Z,10.03
2018-12-18T04:28:19.347Z,10.87
2018-12-18T04:30:46.809Z,11.77
2018-12-18T04:33:14.249Z,9.37
2018-12-18T04:35:41.719Z,10.70
2018-12-18T04:38:09.155Z,9.90
2018-12-18T04:40:36.700Z,9.53
2018-12-18T04:43:04.144Z,9.87
2018-12-18T04:45:31.631Z,10.30
2018-12-18T04:47:59.076Z,9.70
2018-12-18T04:50:26.516Z,9.87
2018-12-18T04:52:53.977Z,8.87
2018-12-18T04:55:21.425Z,10.00
2018-12-18T04:57:48.950Z,10.77
2018-12-18T05:00:16.394Z,9.13
2018-12-18T05:02:43.838Z,10.30
2018-12-18T05:05:11.296Z,10.57
2018-12-18T05:07:38.753Z,9.90
2018-12-18T05:10:06.221Z,10.47
2018-12-18T05:12:33.680Z,10.07
2018-12-18T05:15:01.103Z,9.63
2018-12-18T05:17:28.539Z,11.33
2018-12-18T05:19:55.991Z,10.37
2018-12-18T05:22:23.455Z,9.53
2018-12-18T05:24:51.013Z,10.80
2018-12-18T05:27:18.477Z,11.07
2018-12-18T05:29:46.026Z,10.53
2018-12-18T05:32:13.525Z,10.83
2018-12-18T05:34:40.949Z,9.53
2018-12-18T05:37:08.401Z,10.97
2018-12-18T05:39:35.911Z,10.07
2018-12-18T05:42:03.367Z,9.20
2018-12-18T05:44:30.916Z,9.13
2018-12-18T05:46:58.368Z,9.50
2018-12-18T05:49:25.831Z,10.20
2018-12-18T05:51:53.289Z,9.17
2018-12-18T05:54:20.744Z,9.33
2018-12-18T05:56:48.198Z,10.53
2018-12-18T05:59:15.659Z,10.10
2018-12-18T06:01:43.090Z,10.73
2018-12-18T06:04:10.531Z,10.33
2018-12-18T06:06:38.008Z,10.73
2018-12-18T06:09:05.795Z,8.93
2018-12-18T06:11:33.254Z,9.50
2018-12-18T06:14:00.712Z,8.03
2018-12-18T06:16:28.173Z,7.87
2018-12-18T06:18:55.722Z,8.17
2018-12-18T06:21:23.160Z,8.40
2018-12-18T06:23:50.675Z,7.67
2018-12-18T06:26:18.152Z,7.93
2018-12-18T06:28:45.605Z,7.10
2018-12-18T06:31:13.056Z,7.90
2018-12-18T06:33:40.510Z,6.80
2018-12-18T06:36:07.969Z,6.57
2018-12-18T06:38:35.432Z,7.07
2018-12-18T06:41:02.866Z,6.07
2018-12-18T06:43:30.300Z,6.57
2018-12-18T06:45:57.740Z,7.20
2018-12-18T06:48:25.735Z,6.27
2018-12-18T06:50:53.225Z,6.10
2018-12-18T06:53:20.679Z,6.20
2018-12-18T06:55:48.154Z,8.23
2018-12-18T06:58:15.648Z,6.63
2018-12-18T07:00:43.084Z,7.13
2018-12-18T07:03:10.524Z,5.37
2018-12-18T07:05:37.980Z,6.07
2018-12-18T07:08:05.430Z,6.70
2018-12-18T07:10:32.910Z,6.53
2018-12-18T07:13:00.402Z,6.10
2018-12-18T07:15:27.845Z,5.50
2018-12-18T07:17:55.283Z,6.33
2018-12-18T07:20:22.750Z,5.20
2018-12-18T07:22:50.176Z,5.70
2018-12-18T07:25:17.635Z,3.87
2018-12-18T07:27:45.102Z,5.90
2018-12-18T07:30:12.543Z,6.53
2018-12-18T07:32:40.016Z,5.13
2018-12-18T07:35:07.519Z,5.87
2018-12-18T07:37:34.964Z,5.73
2018-12-18T07:40:02.427Z,5.60
2018-12-18T07:42:29.878Z,6.00
2018-12-18T07:44:57.316Z,5.50
2018-12-18T07:47:24.787Z,5.50
2018-12-18T07:49:52.241Z,4.17
2018-12-18T07:52:19.688Z,5.77
2018-12-18T07:54:47.127Z,5.90
2018-12-18T07:57:14.585Z,5.60
2018-12-18T07:59:42.124Z,5.57
2018-12-18T08:02:09.670Z,5.53
2018-12-18T08:04:37.160Z,5.23
2018-12-18T08:07:04.595Z,4.47
2018-12-18T08:09:32.056Z,4.73
2018-12-18T08:11:59.930Z,4.07
2018-12-18T08:14:27.368Z,5.37
2018-12-18T08:16:54.830Z,4.77
2018-12-18T08:19:22.335Z,4.27
2018-12-18T08:21:49.779Z,4.90
2018-12-18T08:24:17.228Z,4.63
2018-12-18T08:26:44.815Z,4.17
2018-12-18T08:29:12.279Z,4.17
2018-12-18T08:31:39.723Z,5.00
2018-12-18T08:34:07.215Z,5.27
2018-12-18T08:36:34.706Z,4.50
2018-12-18T08:39:02.139Z,5.07
2018-12-18T08:41:29.607Z,4.83
2018-12-18T08:43:57.069Z,5.63
2018-12-18T08:46:24.528Z,5.00
2018-12-18T08:48:51.967Z,4.30
2018-12-18T08:51:19.459Z,4.07
2018-12-18T08:53:46.911Z,3.97
2018-12-18T08:56:14.370Z,3.90
2018-12-18T08:58:41.809Z,5.57
2018-12-18T09:01:09.355Z,4.33
2018-12-18T09:03:36.825Z,4.50
2018-12-18T09:06:04.280Z,4.93
2018-12-18T09:08:31.725Z,4.27
2018-12-18T09:10:59.168Z,4.33
2018-12-18T09:13:26.593Z,4.27
2018-12-18T09:15:55.879Z,4.50
2018-12-18T09:18:23.320Z,4.97
2018-12-18T09:20:50.799Z,4.80
2018-12-18T09:23:18.251Z,4.43
2018-12-18T09:25:45.696Z,5.00
2018-12-18T09:28:13.145Z,4.50
2018-12-18T09:30:42.772Z,4.60
2018-12-18T09:33:10.013Z,4.15
2018-12-18T09:35:37.455Z,5.10
2018-12-18T09:38:10.552Z,4.15
2018-12-18T09:40:43.660Z,4.50
2018-12-18T09:43:16.839Z,5.22
2018-12-18T09:45:44.301Z,4.95
2018-12-18T09:48:11.801Z,3.65
2018-12-18T09:50:39.249Z,3.37
2018-12-18T09:53:06.769Z,3.60
2018-12-18T09:55:34.196Z,3.90
2018-12-18T09:58:03.595Z,4.03
2018-12-18T10:00:31.031Z,3.77
2018-12-18T10:02:58.459Z,2.90
2018-12-18T10:05:25.908Z,3.60
2018-12-18T10:07:53.344Z,3.25
2018-12-18T10:10:20.800Z,3.92
2018-12-18T10:12:54.572Z,3.35
2018-12-18T10:15:23.712Z,3.33
2018-12-18T10:17:51.171Z,2.80
2018-12-18T10:20:18.595Z,2.60
2018-12-18T10:22:49.493Z,2.40
2018-12-18T10:25:17.000Z,2.30
2018-12-18T10:27:44.464Z,2.40
2018-12-18T10:30:11.927Z,2.83
2018-12-18T10:32:39.490Z,2.40
2018-12-18T10:35:06.980Z,2.62
2018-12-18T10:37:34.432Z,2.67
2018-12-18T10:40:01.883Z,2.45
2018-12-18T10:42:29.324Z,2.62
2018-12-18T10:44:56.767Z,2.37
2018-12-18T10:47:24.232Z,2.30
2018-12-18T10:49:51.675Z,2.42
2018-12-18T10:52:19.218Z,2.02
2018-12-18T10:54:46.698Z,2.52
2018-12-18T10:57:14.145Z,1.92
2018-12-18T10:59:41.590Z,2.15
2018-12-18T11:02:09.032Z,2.12
2018-12-18T11:04:36.600Z,2.30
2018-12-18T11:07:05.643Z,2.37
2018-12-18T11:09:33.221Z,2.33
2018-12-18T11:12:00.652Z,1.80
2018-12-18T11:14:28.385Z,1.90
2018-12-18T11:16:55.843Z,1.75
2018-12-18T11:19:23.300Z,2.00
2018-12-18T11:21:50.754Z,2.02
2018-12-18T11:24:18.189Z,2.27
2018-12-18T11:26:45.652Z,1.90
2018-12-18T11:29:13.104Z,1.75
2018-12-18T11:31:40.552Z,2.15
2018-12-18T11:34:07.995Z,1.90
2018-12-18T11:36:35.452Z,2.10
2018-12-18T11:39:04.262Z,1.82
2018-12-18T11:41:31.709Z,1.57
2018-12-18T11:43:59.145Z,1.87
2018-12-18T11:46:26.604Z,2.12
2018-12-18T11:48:54.059Z,1.90
2018-12-18T11:51:21.531Z,1.75
2018-12-18T11:53:48.960Z,1.95
2018-12-18T11:56:16.428Z,2.10
2018-12-18T11:58:43.892Z,1.60
2018-12-18T12:01:11.318Z,2.05
2018-12-18T12:03:38.850Z,2.00
2018-12-18T12:06:06.292Z,1.80
2018-12-18T12:08:33.753Z,1.85
2018-12-18T12:11:01.766Z,1.57
2018-12-18T12:13:29.212Z,2.05
2018-12-18T12:15:56.673Z,1.70
2018-12-18T12:18:24.142Z,2.02
2018-12-18T12:20:53.136Z,1.65
2018-12-18T12:23:20.665Z,2.40
2018-12-18T12:25:48.139Z,1.62
2018-12-18T12:28:15.600Z,1.95
2018-12-18T12:30:43.447Z,1.75
2018-12-18T12:33:11.045Z,2.02
2018-12-18T12:35:38.942Z,1.90
2018-12-18T12:38:06.414Z,1.62
2018-12-18T12:40:33.894Z,2.22
2018-12-18T12:43:01.379Z,2.40
2018-12-18T12:45:29.487Z,2.05
2018-12-18T12:47:58.713Z,2.50
2018-12-18T12:50:26.302Z,1.70
2018-12-18T12:52:53.775Z,1.60
2018-12-18T12:55:21.214Z,2.20
2018-12-18T12:57:48.681Z,1.42
2018-12-18T13:00:16.124Z,1.72
2018-12-18T13:02:43.631Z,1.70
2018-12-18T13:05:11.070Z,1.75
2018-12-18T13:07:38.500Z,1.60
2018-12-18T13:10:05.955Z,1.92
2018-12-18T13:12:33.421Z,1.50
2018-12-18T13:15:00.853Z,1.77
2018-12-18T13:17:28.329Z,1.52
2018-12-18T13:19:55.777Z,1.62
2018-12-18T13:22:23.239Z,2.62
2018-12-18T13:24:50.849Z,1.62
2018-12-18T13:27:18.323Z,1.70
2018-12-18T13:29:46.011Z,2.33
2018-12-18T13:32:13.474Z,1.87
2018-12-18T13:34:40.932Z,1.62
2018-12-18T13:37:08.375Z,2.53
2018-12-18T13:39:35.841Z,1.80
2018-12-18T13:42:03.321Z,2.20
2018-12-18T13:44:30.771Z,1.77
2018-12-18T13:46:58.207Z,2.05
2018-12-18T13:49:25.655Z,2.30
2018-12-18T13:51:53.107Z,2.10
2018-12-18T13:54:20.551Z,2.37
2018-12-18T13:56:47.988Z,2.07
2018-12-18T13:59:15.444Z,2.53
2018-12-18T14:01:42.892Z,2.95
2018-12-18T14:04:10.333Z,1.70
2018-12-18T14:06:37.787Z,1.53
2018-12-18T14:09:06.935Z,1.53
2018-12-18T14:11:34.435Z,1.80
2018-12-18T14:14:01.954Z,1.97
2018-12-18T14:16:29.387Z,1.50
2018-12-18T14:18:56.868Z,1.57
2018-12-18T14:21:24.891Z,1.50
2018-12-18T14:23:52.361Z,1.50
2018-12-18T14:26:19.784Z,1.70
2018-12-18T14:28:47.235Z,1.97
2018-12-18T14:31:14.671Z,2.10
2018-12-18T14:33:42.120Z,1.80
2018-12-18T14:36:09.648Z,1.97
2018-12-18T14:38:37.080Z,1.87
2018-12-18T14:41:04.511Z,1.67
2018-12-18T14:43:31.959Z,1.90
2018-12-18T14:45:59.393Z,1.60
2018-12-18T14:48:26.837Z,1.70
2018-12-18T14:50:54.337Z,2.07
2018-12-18T14:53:21.809Z,1.93
2018-12-18T14:55:49.247Z,2.00
2018-12-18T14:58:16.723Z,1.60
2018-12-18T15:00:44.150Z,1.63
2018-12-18T15:03:11.605Z,1.70
2018-12-18T15:05:39.054Z,1.77
2018-12-18T15:08:06.504Z,1.87
2018-12-18T15:10:34.158Z,1.90
2018-12-18T15:13:01.615Z,2.30
2018-12-18T15:15:29.116Z,1.70
2018-12-18T15:17:56.547Z,1.77
2018-12-18T15:20:23.988Z,2.00
2018-12-18T15:22:51.420Z,2.30
2018-12-18T15:25:18.888Z,2.30
2018-12-18T15:27:46.313Z,2.20
2018-12-18T15:30:13.755Z,2.20
2018-12-18T15:32:41.219Z,2.27
2018-12-18T15:35:08.668Z,2.00
2018-12-18T15:37:36.537Z,2.10
2018-12-18T15:40:04.876Z,2.03
2018-12-18T15:42:32.299Z,2.47
2018-12-18T15:44:59.733Z,2.67
2018-12-18T15:47:27.164Z,2.30
2018-12-18T15:49:54.599Z,2.27
2018-12-18T15:52:22.043Z,2.13
2018-12-18T15:54:49.496Z,2.27
2018-12-18T15:57:16.953Z,1.70
2018-12-18T15:59:44.377Z,1.63
2018-12-18T16:02:11.826Z,2.07
2018-12-18T16:04:39.274Z,2.13
2018-12-18T16:07:06.705Z,2.20
2018-12-18T16:09:34.149Z,3.20
2018-12-18T16:12:01.596Z,3.10
2018-12-18T16:14:29.041Z,3.10
2018-12-18T16:16:56.475Z,3.10
2018-12-18T16:19:23.953Z,3.00
2018-12-18T16:21:51.691Z,2.90
2018-12-18T16:24:19.187Z,2.70
2018-12-18T16:26:46.625Z,2.60
2018-12-18T16:29:14.069Z,2.63
2018-12-18T16:31:41.499Z,2.80
2018-12-18T16:34:08.963Z,2.77
2018-12-18T16:36:36.403Z,2.70
2018-12-18T16:39:06.397Z,2.93
2018-12-18T16:41:33.825Z,2.90
2018-12-18T16:44:01.301Z,3.10
2018-12-18T16:46:28.737Z,2.40
2018-12-18T16:48:56.192Z,2.53
2018-12-18T16:51:23.672Z,2.93
2018-12-18T16:53:51.109Z,3.20
2018-12-18T16:56:18.561Z,3.63
2018-12-18T16:58:46.036Z,2.60
2018-12-18T17:01:13.510Z,2.83
2018-12-18T17:03:40.973Z,3.70
2018-12-18T17:06:08.436Z,2.70
2018-12-18T17:08:35.872Z,2.20
2018-12-18T17:11:03.325Z,3.23
2018-12-18T17:13:30.763Z,3.73
2018-12-18T17:15:58.218Z,3.63
2018-12-18T17:18:25.648Z,3.40
2018-12-18T17:20:53.190Z,3.90
2018-12-18T17:23:20.621Z,3.30
2018-12-18T17:25:48.068Z,3.60
2018-12-18T17:28:15.513Z,3.20
2018-12-18T17:30:42.971Z,3.63
2018-12-18T17:33:10.404Z,3.40
2018-12-18T17:35:38.905Z,3.80
2018-12-18T17:38:06.387Z,3.93
2018-12-18T17:40:34.090Z,3.80
2018-12-18T17:43:01.522Z,4.00
2018-12-18T17:45:28.983Z,3.57
2018-12-18T17:47:56.425Z,3.53
2018-12-18T17:50:23.865Z,3.97
2018-12-18T17:52:51.295Z,4.20
2018-12-18T17:55:18.737Z,4.10
2018-12-18T17:57:46.208Z,4.40
2018-12-18T18:00:13.652Z,4.50
2018-12-18T18:02:41.105Z,4.13
2018-12-18T18:05:08.565Z,4.13
2018-12-18T18:07:36.017Z,4.63
2018-12-18T18:10:04.248Z,4.07
2018-12-18T18:12:31.690Z,4.10
2018-12-18T18:14:59.132Z,4.30
2018-12-18T18:17:26.563Z,4.00
2018-12-18T18:19:54.041Z,4.30
2018-12-18T18:22:21.475Z,4.60
2018-12-18T18:24:48.957Z,4.93
2018-12-18T18:27:16.383Z,6.00
2018-12-18T18:29:43.892Z,4.97
2018-12-18T18:32:11.343Z,5.43
2018-12-18T18:34:38.774Z,5.27
2018-12-18T18:37:06.218Z,5.47
2018-12-18T18:39:33.653Z,5.70
2018-12-18T18:42:01.084Z,5.00
2018-12-18T18:44:28.517Z,5.70
2018-12-18T18:46:55.968Z,5.03
2018-12-18T18:49:23.401Z,5.50
2018-12-18T18:51:50.844Z,5.57
2018-12-18T18:54:18.267Z,5.60
2018-12-18T18:56:45.711Z,4.77
2018-12-18T18:59:13.139Z,6.30
2018-12-18T19:01:40.576Z,5.40
2018-12-18T19:04:08.021Z,6.27
2018-12-18T19:06:35.703Z,5.40
2018-12-18T19:09:03.993Z,5.20
2018-12-18T19:11:31.454Z,5.43
2018-12-18T19:13:58.910Z,5.70
2018-12-18T19:16:26.363Z,5.37
2018-12-18T19:18:53.797Z,5.73
2018-12-18T19:21:21.255Z,6.00
2018-12-18T19:23:48.693Z,5.80
2018-12-18T19:26:16.131Z,5.73
2018-12-18T19:28:50.068Z,5.03
2018-12-18T19:31:13.052Z,7.20
2018-12-18T19:33:40.481Z,6.27
2018-12-18T19:36:07.953Z,6.70
2018-12-18T19:38:35.429Z,5.77
2018-12-18T19:41:02.864Z,6.57
2018-12-18T19:43:30.294Z,5.80
2018-12-18T19:45:57.731Z,5.23
2018-12-18T19:48:25.217Z,6.23
2018-12-18T19:50:52.981Z,5.63
2018-12-18T19:53:20.409Z,6.50
2018-12-18T19:55:47.856Z,6.90
2018-12-18T19:58:15.309Z,7.57
2018-12-18T20:00:42.770Z,6.93
2018-12-18T20:03:10.196Z,7.53
2018-12-18T20:05:38.438Z,6.90
2018-12-18T20:08:10.003Z,6.33
2018-12-18T20:10:35.412Z,6.23
2018-12-18T20:13:04.617Z,8.43
2018-12-18T20:15:32.585Z,6.90
2018-12-18T20:18:00.051Z,7.20
2018-12-18T20:20:27.504Z,7.30
2018-12-18T20:22:54.961Z,6.13
2018-12-18T20:25:22.436Z,7.27
2018-12-18T20:27:49.883Z,6.50
2018-12-18T20:30:17.337Z,7.50
2018-12-18T20:32:44.777Z,6.60
2018-12-18T20:35:12.217Z,6.43
2018-12-18T20:37:39.697Z,5.73
2018-12-18T20:40:08.779Z,8.23
2018-12-18T20:42:36.250Z,6.60
2018-12-18T20:45:04.663Z,6.90
2018-12-18T20:47:32.121Z,7.07
2018-12-18T20:49:59.545Z,7.27
2018-12-18T20:52:26.980Z,6.57
2018-12-18T20:54:54.407Z,7.30
2018-12-18T20:57:21.919Z,6.83
2018-12-18T20:59:49.349Z,6.13
2018-12-18T21:02:16.804Z,6.37
2018-12-18T21:04:44.246Z,5.60
2018-12-18T21:07:11.696Z,5.33
2018-12-18T21:09:39.153Z,5.63
2018-12-18T21:12:06.598Z,5.27
2018-12-18T21:14:34.027Z,5.00
2018-12-18T21:17:01.477Z,5.57
2018-12-18T21:19:28.921Z,5.23
2018-12-18T21:21:56.403Z,6.03
2018-12-18T21:24:23.846Z,6.10
2018-12-18T21:26:51.289Z,5.13
2018-12-18T21:29:18.728Z,5.70
2018-12-18T21:31:46.192Z,5.20
2018-12-18T21:34:13.637Z,5.60
2018-12-18T21:36:41.077Z,5.23
2018-12-18T21:39:08.575Z,4.53
2018-12-18T21:41:36.012Z,5.03
2018-12-18T21:44:03.456Z,4.70
2018-12-18T21:46:30.879Z,5.07
2018-12-18T21:48:58.316Z,5.67
2018-12-18T21:51:25.756Z,4.53
2018-12-18T21:53:53.188Z,4.87
2018-12-18T21:56:20.626Z,5.23
2018-12-18T21:58:48.158Z,5.10
2018-12-18T22:01:15.605Z,3.93
2018-12-18T22:03:43.048Z,4.20
2018-12-18T22:06:10.472Z,4.70
2018-12-18T22:08:38.038Z,4.60
2018-12-18T22:11:05.564Z,4.73
2018-12-18T22:13:33.019Z,4.53
2018-12-18T22:16:00.456Z,4.67
2018-12-18T22:18:27.905Z,4.77
2018-12-18T22:20:55.366Z,4.40
2018-12-18T22:23:22.805Z,4.73
2018-12-18T22:25:50.236Z,4.70
2018-12-18T22:28:17.834Z,4.63
2018-12-18T22:30:45.295Z,3.33
2018-12-18T22:33:12.720Z,3.73
2018-12-18T22:35:40.156Z,3.93
2018-12-18T22:38:07.608Z,4.40
2018-12-18T22:40:35.136Z,3.53
2018-12-18T22:43:02.573Z,3.10
2018-12-18T22:45:30.008Z,4.70
2018-12-18T22:47:57.464Z,4.17
2018-12-18T22:50:24.887Z,3.57
2018-12-18T22:52:52.367Z,3.93
2018-12-18T22:55:19.816Z,3.20
2018-12-18T22:57:47.268Z,3.90
2018-12-18T23:00:17.435Z,3.67
2018-12-18T23:02:44.860Z,3.83
2018-12-18T23:05:12.373Z,3.47
2018-12-18T23:07:40.689Z,3.40
2018-12-18T23:10:08.123Z,3.57
2018-12-18T23:12:35.615Z,3.70
2018-12-18T23:15:03.064Z,4.17
2018-12-18T23:17:30.517Z,3.60
2018-12-18T23:19:58.022Z,4.27
2018-12-18T23:22:25.471Z,3.40
2018-12-18T23:24:52.899Z,2.93
2018-12-18T23:27:20.345Z,3.40
2018-12-18T23:29:47.780Z,3.87
2018-12-18T23:32:15.231Z,3.13
2018-12-18T23:34:42.660Z,3.67
2018-12-18T23:37:10.096Z,3.40
2018-12-18T23:39:37.535Z,3.43
2018-12-18T23:42:05.220Z,3.73
2018-12-18T23:44:32.743Z,3.07
2018-12-18T23:47:00.193Z,3.10
2018-12-18T23:49:27.720Z,3.17
2018-12-18T23:51:55.172Z,2.70
2018-12-18T23:54:22.612Z,2.70
2018-12-18T23:56:50.052Z,3.03
2018-12-18T23:59:17.493Z,3.20
